Terminal Aerodrome Forecast
Issued by NWS

Home | Current Version | Previous Version | Text Only | Print | Product List | Glossary On
Versions: 1 2 3 4 5 6 7 8 9 10 11 12 13 14 15 16 17 18 19 20 21 22 23 24 25 26 27 28
000
FTUS46 KMTR 020300 AAA
TAFSFO
TAF AMD
KSFO 020300Z 0203/0306 28023G27KT P6SM FEW040 SCT250
     FM020400 28017KT P6SM SKC
     FM020700 29013KT P6SM SKC
     FM022000 28017G22KT P6SM SKC
     FM030400 28017KT P6SM SKC=

USA.gov is the U.S. government's official web portal to all federal, state and local government web resources and services.